Time;durP1;ratioP1;P1;durP2;ratioP2;P2;SDS_P1;SDS_P2;PMS_P1;PMS_P2;Temp;Humidity;BMP_temperature;BMP_pressure;BME280_temperature;BME280_humidity;BME280_pressure;Samples;Min_cycle;Max_cycle;Signal;HPM_P1;HPM_P2
2021/06/19 00:01:29;;;;;;;7.13;4.73;;;;;;;22.52;74.73;100816.25;5032937;28;20447;-72
2021/06/19 00:03:56;;;;;;;4.73;4.23;;;;;;;22.51;75.17;100809.16;5032586;28;20854;-72
2021/06/19 00:06:22;;;;;;;9.20;4.43;;;;;;;22.48;75.48;100813.47;5032818;28;20447;-72
2021/06/19 00:08:49;;;;;;;6.40;4.87;;;;;;;22.47;75.38;100805.56;5032652;28;20482;-72
2021/06/19 00:11:17;;;;;;;8.93;4.33;;;;;;;22.43;75.94;100813.78;5032813;28;20442;-72
2021/06/19 00:13:44;;;;;;;7.50;5.13;;;;;;;22.39;75.91;100802.69;5032459;28;20963;-72
2021/06/19 00:16:10;;;;;;;8.63;5.00;;;;;;;22.36;76.09;100809.00;5032800;28;20446;-72
2021/06/19 00:18:37;;;;;;;8.47;5.03;;;;;;;22.32;76.25;100819.19;5032662;28;20459;-72
2021/06/19 00:21:03;;;;;;;4.40;4.00;;;;;;;22.31;75.84;100803.81;5036097;28;20952;-72
2021/06/19 00:23:30;;;;;;;8.40;4.83;;;;;;;22.27;76.09;100808.50;5036435;28;20447;-72
2021/06/19 00:25:57;;;;;;;8.67;4.30;;;;;;;22.24;76.55;100809.22;5036399;28;20462;-72
2021/06/19 00:28:25;;;;;;;7.10;4.60;;;;;;;22.23;77.13;100809.63;5035947;28;20996;-72
2021/06/19 00:30:52;;;;;;;6.00;4.43;;;;;;;22.17;76.98;100815.44;5036341;28;20446;-72
2021/06/19 00:33:18;;;;;;;5.60;4.40;;;;;;;22.14;77.38;100813.44;5035997;28;20443;-72
2021/06/19 00:35:45;;;;;;;8.53;5.13;;;;;;;22.12;77.01;100801.97;5036258;28;20446;-71
2021/06/19 00:38:11;;;;;;;6.00;4.60;;;;;;;22.10;77.40;100803.50;5036088;28;20443;-72
2021/06/19 00:40:38;;;;;;;6.37;4.53;;;;;;;22.07;77.89;100807.00;5036150;28;20446;-72
2021/06/19 00:43:05;;;;;;;6.73;5.20;;;;;;;22.03;78.11;100803.41;5036109;28;20469;-72
2021/06/19 00:45:37;;;;;;;4.63;4.23;;;;;;;22.00;77.40;100802.19;5036083;28;20454;-72
2021/06/19 00:48:07;;;;;;;7.50;4.40;;;;;;;21.97;77.59;100810.41;5040849;28;20454;-72
2021/06/19 00:50:33;;;;;;;6.10;4.80;;;;;;;21.94;78.01;100803.66;5037852;28;20470;-72
2021/06/19 00:53:00;;;;;;;6.83;4.70;;;;;;;21.90;77.74;100811.88;5034539;28;20505;-72
2021/06/19 00:55:26;;;;;;;8.77;4.87;;;;;;;21.84;77.93;100793.28;5035957;28;20443;-72
2021/06/19 00:57:53;;;;;;;7.10;4.60;;;;;;;21.82;77.91;100799.16;5035853;28;20443;-72
2021/06/19 01:00:21;;;;;;;5.83;4.00;;;;;;;21.81;78.97;100794.03;5035653;28;20475;-70
2021/06/19 01:02:48;;;;;;;8.30;5.90;;;;;;;21.78;79.20;100798.34;5036028;28;20450;-70
2021/06/19 01:05:16;;;;;;;6.53;4.80;;;;;;;21.75;79.15;100790.81;5035747;28;20515;-71
2021/06/19 01:07:42;;;;;;;7.47;4.57;;;;;;;21.73;79.12;100786.81;5035600;28;20517;-71
2021/06/19 01:10:10;;;;;;;6.13;4.60;;;;;;;21.68;79.13;100790.69;5035524;28;20464;-71
2021/06/19 01:12:40;;;;;;;5.60;4.57;;;;;;;21.66;79.32;100779.25;5035468;28;20446;-71
2021/06/19 01:15:08;;;;;;;7.00;5.37;;;;;;;21.61;79.73;100780.38;5035588;28;20442;-71
2021/06/19 01:17:35;;;;;;;9.10;5.90;;;;;;;21.56;79.08;100775.19;5034844;28;20944;-71
2021/06/19 01:20:06;;;;;;;6.27;4.97;;;;;;;21.52;79.55;100774.31;5035367;28;20841;-72
2021/06/19 01:22:33;;;;;;;7.73;5.00;;;;;;;21.48;79.62;100776.22;5035638;28;20438;-71
2021/06/19 01:25:01;;;;;;;9.43;5.10;;;;;;;21.46;80.13;100778.53;5035402;28;20447;-72
2021/06/19 01:27:29;;;;;;;6.80;4.30;;;;;;;21.46;79.81;100786.03;5035252;28;20466;-72
2021/06/19 01:29:57;;;;;;;5.43;4.50;;;;;;;21.41;80.24;100778.84;5034823;28;20451;-72
2021/06/19 01:32:25;;;;;;;6.57;4.60;;;;;;;21.40;80.24;100785.53;5034230;28;20443;-72
2021/06/19 01:34:52;;;;;;;5.40;4.00;;;;;;;21.35;80.69;100780.34;5035192;28;20447;-72
2021/06/19 01:37:18;;;;;;;5.47;4.77;;;;;;;21.35;81.31;100777.59;5035111;28;20446;-71
2021/06/19 01:39:45;;;;;;;7.60;5.27;;;;;;;21.32;80.71;100787.38;5035005;28;20459;-72
2021/06/19 01:42:13;;;;;;;6.23;4.83;;;;;;;21.28;81.61;100783.75;5035040;28;20443;-72
2021/06/19 01:44:39;;;;;;;6.00;4.57;;;;;;;21.27;81.09;100790.41;5035002;28;20450;-72
2021/06/19 01:47:06;;;;;;;7.73;5.13;;;;;;;21.26;80.96;100791.59;5034921;28;20448;-72
2021/06/19 01:49:33;;;;;;;5.70;4.50;;;;;;;21.24;80.78;100793.13;5034754;28;20506;-72
2021/06/19 01:52:00;;;;;;;6.33;4.10;;;;;;;21.21;81.52;100783.63;5034854;28;20793;-72
2021/06/19 01:54:26;;;;;;;7.37;4.77;;;;;;;21.20;81.57;100782.03;5034766;28;20817;-72
2021/06/19 01:56:53;;;;;;;6.57;4.33;;;;;;;21.20;81.64;100781.22;5034762;28;20443;-72
2021/06/19 01:59:21;;;;;;;5.60;4.40;;;;;;;21.17;81.66;100783.56;5034367;28;20486;-72
2021/06/19 02:01:47;;;;;;;7.90;5.20;;;;;;;21.14;81.52;100780.75;5034646;28;20447;-72
2021/06/19 02:04:14;;;;;;;6.37;5.10;;;;;;;21.09;81.97;100773.59;5034580;28;20794;-72
2021/06/19 02:06:40;;;;;;;6.20;4.27;;;;;;;21.07;82.02;100775.13;5034485;28;20952;-72
2021/06/19 02:09:09;;;;;;;6.30;4.37;;;;;;;21.07;82.12;100767.66;5034364;28;20494;-72
2021/06/19 02:11:36;;;;;;;4.67;4.27;;;;;;;21.04;82.39;100770.38;5034476;28;20439;-71
2021/06/19 02:14:04;;;;;;;5.93;5.27;;;;;;;21.02;82.86;100769.91;5034392;28;20444;-72
2021/06/19 02:16:33;;;;;;;5.67;4.10;;;;;;;21.02;82.87;100773.47;5034768;28;20431;-72
2021/06/19 02:18:59;;;;;;;6.07;4.47;;;;;;;21.01;82.28;100773.84;5033958;28;20980;-72
2021/06/19 02:21:25;;;;;;;8.63;5.17;;;;;;;20.97;82.47;100768.25;5034271;28;20438;-72
2021/06/19 02:23:52;;;;;;;6.10;5.17;;;;;;;20.97;82.68;100764.72;5034239;28;20447;-72
2021/06/19 02:26:18;;;;;;;6.70;4.07;;;;;;;20.95;83.17;100764.31;5034152;28;20443;-72
2021/06/19 02:28:45;;;;;;;10.83;4.70;;;;;;;20.93;82.63;100775.66;5033672;28;20996;-72
2021/06/19 02:31:11;;;;;;;6.13;4.63;;;;;;;20.92;82.89;100763.06;5034317;28;20439;-72
2021/06/19 02:33:39;;;;;;;8.87;5.60;;;;;;;20.89;82.63;100772.06;5034050;28;20447;-72
2021/06/19 02:36:06;;;;;;;5.27;4.37;;;;;;;20.83;82.40;100768.81;5033670;28;20822;-72
2021/06/19 02:38:32;;;;;;;6.23;5.10;;;;;;;20.81;82.99;100773.91;5033912;28;20463;-72
2021/06/19 02:40:59;;;;;;;6.33;4.73;;;;;;;20.78;83.71;100771.88;5033938;28;20451;-73
2021/06/19 02:43:25;;;;;;;7.07;4.80;;;;;;;20.77;83.95;100772.25;5033546;28;20446;-72
2021/06/19 02:45:52;;;;;;;4.73;4.33;;;;;;;20.76;83.47;100784.41;5033915;28;20447;-72
2021/06/19 02:48:18;;;;;;;6.00;4.97;;;;;;;20.70;84.21;100775.66;5033735;28;20868;-72
2021/06/19 02:50:46;;;;;;;6.13;4.77;;;;;;;20.68;83.47;100778.00;5035434;28;20451;-72
2021/06/19 02:53:13;;;;;;;6.70;4.50;;;;;;;20.64;84.12;100774.38;5038893;28;20808;-73
2021/06/19 02:55:42;;;;;;;6.80;5.40;;;;;;;20.65;84.39;100774.00;5033718;28;20454;-73
2021/06/19 02:58:09;;;;;;;9.07;5.87;;;;;;;20.64;84.28;100783.41;5033597;28;20486;-73
2021/06/19 03:00:36;;;;;;;6.67;5.37;;;;;;;20.64;85.16;100779.88;5034064;28;20459;-72
2021/06/19 03:03:03;;;;;;;5.10;4.40;;;;;;;20.62;84.97;100773.91;5033584;28;20458;-73
2021/06/19 03:05:31;;;;;;;7.30;5.03;;;;;;;20.62;84.74;100773.91;5033546;28;20439;-73
2021/06/19 03:08:00;;;;;;;5.53;4.83;;;;;;;20.63;84.54;100781.03;5033460;28;20823;-73
2021/06/19 03:10:28;;;;;;;7.10;5.37;;;;;;;20.61;84.16;100784.13;5033397;28;20459;-73
2021/06/19 03:12:55;;;;;;;6.70;5.10;;;;;;;20.61;85.00;100777.84;5033080;28;20933;-73
2021/06/19 03:15:21;;;;;;;5.87;5.00;;;;;;;20.61;84.57;100777.84;5033659;28;20443;-73
2021/06/19 03:17:47;;;;;;;9.60;5.80;;;;;;;20.61;84.76;100773.13;5033350;28;20443;-73
2021/06/19 03:20:15;;;;;;;5.30;4.67;;;;;;;20.59;85.85;100769.16;5033285;28;20463;-73
2021/06/19 03:22:45;;;;;;;7.40;5.30;;;;;;;20.62;85.95;100769.22;5033297;28;20447;-73
2021/06/19 03:25:15;;;;;;;6.70;5.33;;;;;;;20.57;85.89;100777.78;5033201;28;20820;-73
2021/06/19 03:27:41;;;;;;;6.03;5.00;;;;;;;20.59;85.55;100785.69;5033279;28;20450;-73
2021/06/19 03:30:10;;;;;;;7.43;5.33;;;;;;;20.60;85.70;100782.56;5032730;28;21030;-73
2021/06/19 03:32:38;;;;;;;6.40;5.37;;;;;;;20.60;86.18;100781.75;5033411;28;20446;-73
2021/06/19 03:35:06;;;;;;;17.53;4.67;;;;;;;20.63;85.83;100786.56;5033220;28;20447;-73
2021/06/19 03:37:33;;;;;;;6.60;4.90;;;;;;;20.68;85.79;100788.22;5033124;28;20450;-73
2021/06/19 03:39:59;;;;;;;5.07;4.20;;;;;;;20.70;86.55;100786.66;5033042;28;20470;-73
2021/06/19 03:42:28;;;;;;;6.07;4.63;;;;;;;20.73;86.13;100783.19;5032802;28;20438;-73
2021/06/19 03:44:55;;;;;;;6.97;5.00;;;;;;;20.71;86.52;100788.25;5033098;28;20447;-73
2021/06/19 03:47:21;;;;;;;6.07;4.80;;;;;;;20.72;86.58;100783.53;5033096;28;20500;-73
2021/06/19 03:49:48;;;;;;;5.60;4.17;;;;;;;20.72;87.31;100783.53;5032876;28;20483;-73
2021/06/19 03:52:14;;;;;;;6.40;4.50;;;;;;;20.75;87.87;100785.56;5033038;28;20450;-73
2021/06/19 03:54:41;;;;;;;6.80;5.27;;;;;;;20.80;88.07;100779.75;5034575;28;20462;-73
2021/06/19 03:57:08;;;;;;;7.40;5.10;;;;;;;20.85;87.77;100787.72;5036988;28;20447;-73
2021/06/19 03:59:36;;;;;;;8.37;5.17;;;;;;;20.88;87.64;100782.28;5036609;28;20477;-73
2021/06/19 04:02:03;;;;;;;7.40;4.63;;;;;;;20.92;88.04;100776.84;5036585;28;20816;-73
2021/06/19 04:04:29;;;;;;;6.90;4.97;;;;;;;20.95;88.51;100780.81;5036901;28;20450;-73
2021/06/19 04:06:56;;;;;;;7.33;5.10;;;;;;;20.98;88.74;100780.06;5036805;28;20450;-73
2021/06/19 04:09:22;;;;;;;5.80;4.77;;;;;;;21.01;88.33;100782.09;5036674;28;20854;-73
2021/06/19 04:11:49;;;;;;;8.50;4.30;;;;;;;21.03;88.49;100782.53;5036677;28;20439;-73
2021/06/19 04:14:15;;;;;;;6.07;4.80;;;;;;;21.09;89.05;100783.81;5036650;28;20446;-73
2021/06/19 04:16:43;;;;;;;4.60;4.17;;;;;;;21.13;89.07;100782.72;5036627;28;20438;-73
2021/06/19 04:19:09;;;;;;;6.03;4.03;;;;;;;21.21;88.75;100771.81;5036512;28;20459;-73
2021/06/19 04:21:36;;;;;;;8.10;5.50;;;;;;;21.29;88.13;100770.75;5036546;28;20454;-73
2021/06/19 04:24:02;;;;;;;5.97;5.20;;;;;;;21.37;88.24;100781.56;5036216;28;20948;-73
2021/06/19 04:26:28;;;;;;;5.03;4.53;;;;;;;21.42;87.67;100781.22;5036499;28;20439;-72
2021/06/19 04:28:55;;;;;;;6.90;5.60;;;;;;;21.54;86.17;100776.69;5036271;28;20494;-72
2021/06/19 04:31:21;;;;;;;6.93;5.00;;;;;;;21.63;84.87;100793.78;5036036;28;20831;-72
2021/06/19 04:33:49;;;;;;;6.20;4.90;;;;;;;21.79;83.02;100788.91;5036109;28;20446;-72
2021/06/19 04:36:17;;;;;;;6.77;4.20;;;;;;;21.96;80.80;100789.50;5036320;28;20447;-72
2021/06/19 04:38:43;;;;;;;6.23;4.67;;;;;;;22.16;79.42;100782.72;5035936;28;20884;-72
2021/06/19 04:41:21;;;;;;;5.67;5.07;;;;;;;22.36;77.32;100792.44;5036181;28;20458;-72
2021/06/19 04:44:05;;;;;;;6.23;4.67;;;;;;;22.58;76.01;100787.16;5036237;28;20481;-72
2021/06/19 04:46:32;;;;;;;5.40;4.80;;;;;;;22.77;76.27;100788.94;5036140;28;20849;-72
2021/06/19 04:49:00;;;;;;;5.57;4.53;;;;;;;22.91;75.21;100789.88;5035613;28;20505;-72
2021/06/19 04:51:26;;;;;;;5.40;4.67;;;;;;;23.01;75.20;100790.38;5036277;28;20466;-72
2021/06/19 04:53:53;;;;;;;7.33;5.10;;;;;;;23.12;76.14;100785.75;5042898;28;20442;-70
2021/06/19 04:56:20;;;;;;;6.37;4.23;;;;;;;23.20;75.46;100784.63;5035925;28;20500;-71
2021/06/19 04:58:46;;;;;;;7.10;4.70;;;;;;;23.31;74.74;100788.25;5035529;28;20479;-70
2021/06/19 05:01:13;;;;;;;6.10;4.80;;;;;;;23.39;74.72;100795.44;5035804;28;20454;-70
2021/06/19 05:03:40;;;;;;;6.10;4.77;;;;;;;23.45;74.55;100806.94;5035861;28;20451;-72
2021/06/19 05:06:08;;;;;;;9.23;4.70;;;;;;;23.55;73.35;100803.47;5035458;28;20447;-73
2021/06/19 05:08:34;;;;;;;4.63;4.13;;;;;;;23.66;74.08;100807.13;5035593;28;20463;-73
2021/06/19 05:11:00;;;;;;;6.03;4.70;;;;;;;23.72;75.62;100804.78;5035704;28;20448;-73
2021/06/19 05:13:27;;;;;;;8.13;5.07;;;;;;;23.79;76.52;100796.53;5035553;28;20447;-73
2021/06/19 05:15:53;;;;;;;5.93;5.33;;;;;;;23.84;75.80;100801.69;5035241;28;20945;-73
2021/06/19 05:18:20;;;;;;;7.03;4.97;;;;;;;23.91;76.42;100798.19;5035562;28;20443;-73
2021/06/19 05:20:46;;;;;;;6.73;5.30;;;;;;;23.96;75.72;100797.81;5035539;28;20442;-73
2021/06/19 05:23:14;;;;;;;5.67;4.60;;;;;;;24.03;74.39;100800.63;5035458;28;20443;-73
2021/06/19 05:25:40;;;;;;;7.90;4.90;;;;;;;24.14;70.59;100795.94;5035424;28;20447;-73
2021/06/19 05:28:07;;;;;;;6.93;5.03;;;;;;;24.29;68.48;100798.75;5035022;28;20447;-73
2021/06/19 05:30:33;;;;;;;5.63;4.50;;;;;;;24.46;67.78;100791.75;5035206;28;20866;-73
2021/06/19 05:33:00;;;;;;;5.20;4.70;;;;;;;24.63;66.25;100791.00;5035249;28;20451;-73
2021/06/19 05:35:26;;;;;;;6.10;4.53;;;;;;;24.76;66.47;100795.00;5035159;28;21038;-73
2021/06/19 05:37:53;;;;;;;5.77;4.43;;;;;;;24.86;65.69;100796.97;5035101;28;20968;-73
2021/06/19 05:40:21;;;;;;;5.70;4.60;;;;;;;24.94;68.32;100799.78;5035053;28;20455;-73
2021/06/19 05:42:47;;;;;;;5.27;4.30;;;;;;;25.00;71.40;100795.41;5035349;28;20447;-73
2021/06/19 05:45:14;;;;;;;5.70;4.87;;;;;;;25.05;66.66;100795.00;5034926;28;20443;-73
2021/06/19 05:47:40;;;;;;;5.13;4.57;;;;;;;25.20;64.06;100802.19;5035029;28;20458;-73
2021/06/19 05:50:08;;;;;;;5.10;4.13;;;;;;;25.34;64.12;100804.97;5034801;28;20495;-73
2021/06/19 05:52:35;;;;;;;4.00;3.43;;;;;;;25.50;63.30;100814.84;5034903;28;20469;-73
2021/06/19 05:55:01;;;;;;;4.73;4.13;;;;;;;25.58;64.87;100810.88;5034811;28;20826;-73
2021/06/19 05:57:29;;;;;;;5.57;4.97;;;;;;;25.63;62.44;100818.81;5034846;28;20447;-73
2021/06/19 05:59:55;;;;;;;5.67;5.03;;;;;;;25.71;62.50;100809.28;5034275;28;20826;-73
2021/06/19 06:02:22;;;;;;;7.63;5.20;;;;;;;25.78;62.05;100814.06;5034674;28;20466;-73
2021/06/19 06:04:48;;;;;;;5.20;4.63;;;;;;;25.84;62.44;100804.94;5034764;28;20443;-71
2021/06/19 06:07:15;;;;;;;5.77;4.53;;;;;;;25.93;60.95;100807.28;5034569;28;20447;-72
2021/06/19 06:09:41;;;;;;;5.70;3.90;;;;;;;25.94;62.55;100806.09;5034389;28;20510;-73
2021/06/19 06:12:09;;;;;;;4.80;4.27;;;;;;;25.97;62.89;100802.50;5034169;28;20803;-71
2021/06/19 06:14:38;;;;;;;4.63;4.23;;;;;;;26.07;60.72;100804.47;5034681;28;20447;-71
2021/06/19 06:17:05;;;;;;;5.63;4.93;;;;;;;26.15;62.07;100800.47;5033740;28;20544;-71
2021/06/19 06:19:31;;;;;;;6.10;4.80;;;;;;;26.22;60.02;100812.75;5034315;28;20470;-71
2021/06/19 06:21:57;;;;;;;5.73;5.13;;;;;;;26.30;60.27;100808.75;5034306;28;20439;-71
2021/06/19 06:24:24;;;;;;;7.10;4.60;;;;;;;26.33;60.96;100810.72;5034209;28;20442;-71
2021/06/19 06:26:50;;;;;;;6.90;4.83;;;;;;;26.32;62.19;100811.91;5034039;28;20447;-71
2021/06/19 06:29:17;;;;;;;6.40;4.83;;;;;;;26.33;63.52;100805.16;5034006;28;20495;-71
2021/06/19 06:31:45;;;;;;;5.30;4.10;;;;;;;26.37;62.39;100812.28;5034021;28;20445;-71
2021/06/19 06:34:11;;;;;;;6.27;4.97;;;;;;;26.41;62.93;100810.28;5034370;28;20443;-71
2021/06/19 06:36:38;;;;;;;5.30;4.73;;;;;;;26.51;60.82;100810.66;5034281;28;20439;-71
2021/06/19 06:39:05;;;;;;;5.47;4.73;;;;;;;26.58;61.63;100808.66;5033807;28;20455;-71
2021/06/19 06:41:31;;;;;;;5.00;4.47;;;;;;;26.63;63.15;100813.78;5033931;28;20439;-71
2021/06/19 06:43:58;;;;;;;4.47;3.90;;;;;;;26.66;63.56;100823.31;5033965;28;20449;-71
2021/06/19 06:46:24;;;;;;;9.10;4.90;;;;;;;26.73;61.90;100817.69;5033866;28;20447;-71
2021/06/19 06:48:52;;;;;;;7.43;6.07;;;;;;;26.85;60.43;100822.78;5033851;28;20489;-71
2021/06/19 06:51:19;;;;;;;6.70;4.80;;;;;;;26.93;59.97;100820.75;5033725;28;20493;-71
2021/06/19 06:53:45;;;;;;;6.10;4.63;;;;;;;27.04;59.62;100815.09;5033761;28;20492;-71
2021/06/19 06:56:12;;;;;;;6.40;4.73;;;;;;;27.12;59.43;100822.22;5033690;28;20470;-71
2021/06/19 06:58:38;;;;;;;5.57;4.70;;;;;;;27.15;60.10;100816.66;5040527;28;20471;-71
2021/06/19 07:01:04;;;;;;;5.77;5.17;;;;;;;27.21;61.12;100825.34;5033639;28;20443;-72
2021/06/19 07:03:31;;;;;;;6.93;4.60;;;;;;;27.27;57.88;100831.25;5033603;28;20451;-72
2021/06/19 07:05:59;;;;;;;4.90;4.37;;;;;;;27.38;58.12;100820.84;5034843;28;20447;-71
2021/06/19 07:08:25;;;;;;;5.20;4.33;;;;;;;27.45;59.87;100822.75;5033451;28;20443;-71
2021/06/19 07:10:51;;;;;;;6.10;4.90;;;;;;;27.52;59.34;100825.47;5033465;28;20482;-71
2021/06/19 07:13:18;;;;;;;5.60;4.93;;;;;;;27.61;57.47;100814.66;5033392;28;20443;-71
2021/06/19 07:15:44;;;;;;;4.60;4.20;;;;;;;27.67;59.18;100818.59;5033311;28;20434;-70
2021/06/19 07:18:11;;;;;;;6.07;5.07;;;;;;;27.73;57.81;100811.41;5033416;28;20450;-71
2021/06/19 07:20:38;;;;;;;5.30;4.73;;;;;;;27.85;59.13;100807.31;5033296;28;20455;-71
2021/06/19 07:23:06;;;;;;;5.27;4.67;;;;;;;27.90;60.96;100813.22;5033587;28;20450;-71
2021/06/19 07:25:32;;;;;;;4.20;3.80;;;;;;;27.96;60.36;100812.75;5033200;28;20457;-70
2021/06/19 07:27:59;;;;;;;5.40;4.30;;;;;;;28.00;58.87;100810.72;5033045;28;20447;-71
2021/06/19 07:30:26;;;;;;;4.03;3.63;;;;;;;28.05;60.30;100813.81;5033314;28;20573;-71
2021/06/19 07:32:54;;;;;;;5.67;5.00;;;;;;;28.07;58.79;100814.22;5032874;28;20534;-70
2021/06/19 07:35:21;;;;;;;5.50;4.53;;;;;;;28.11;58.66;100814.16;5033132;28;20467;-71
2021/06/19 07:37:47;;;;;;;6.57;4.57;;;;;;;28.17;57.47;100807.72;5033195;28;20439;-71
2021/06/19 07:40:16;;;;;;;4.93;4.20;;;;;;;28.25;57.56;100818.78;5033040;28;20459;-71
2021/06/19 07:42:43;;;;;;;4.33;3.93;;;;;;;28.36;57.83;100813.88;5033047;28;20446;-71
2021/06/19 07:45:10;;;;;;;4.97;4.57;;;;;;;28.45;57.16;100810.59;5032798;28;20929;-72
2021/06/19 07:47:37;;;;;;;5.60;4.80;;;;;;;28.62;55.34;100812.34;5033062;28;20447;-72
2021/06/19 07:50:05;;;;;;;4.70;4.20;;;;;;;28.78;53.78;100820.09;5032906;28;20530;-71
2021/06/19 07:52:31;;;;;;;4.80;4.10;;;;;;;28.91;54.09;100813.53;5032990;28;20454;-71
2021/06/19 07:54:57;;;;;;;5.03;3.70;;;;;;;29.00;55.95;100817.78;5033192;28;20447;-71
2021/06/19 07:57:25;;;;;;;8.13;3.83;;;;;;;29.06;56.56;100813.34;5032997;28;20451;-70
2021/06/19 07:59:52;;;;;;;4.83;4.10;;;;;;;29.08;56.46;100813.69;5032653;28;20486;-71
2021/06/19 08:02:18;;;;;;;5.43;4.90;;;;;;;29.10;55.46;100816.84;5032926;28;20470;-71
2021/06/19 08:04:45;;;;;;;5.07;4.20;;;;;;;29.13;55.25;100822.38;5032937;28;20447;-70
2021/06/19 08:07:11;;;;;;;5.87;4.40;;;;;;;29.18;53.46;100826.69;5033119;28;20451;-71
2021/06/19 08:09:38;;;;;;;4.90;3.83;;;;;;;29.34;51.31;100820.44;5032330;28;21006;-70
2021/06/19 08:12:05;;;;;;;4.13;3.73;;;;;;;29.48;51.62;100825.78;5032459;28;20454;-71
2021/06/19 08:14:33;;;;;;;12.97;4.70;;;;;;;29.66;51.14;100822.69;5032822;28;20470;-71
2021/06/19 08:17:04;;;;;;;6.27;4.03;;;;;;;29.74;51.30;100823.34;5032781;28;20840;-71
2021/06/19 08:19:30;;;;;;;5.27;4.50;;;;;;;29.73;51.17;100824.59;5032473;28;20982;-71
2021/06/19 08:21:57;;;;;;;3.80;3.50;;;;;;;29.73;52.37;100822.56;5032507;28;20873;-70
2021/06/19 08:24:23;;;;;;;4.30;3.90;;;;;;;29.74;52.13;100817.78;5032774;28;20447;-70
2021/06/19 08:26:50;;;;;;;5.40;4.87;;;;;;;29.77;52.77;100820.50;5032728;28;20443;-71
2021/06/19 08:29:16;;;;;;;5.47;4.20;;;;;;;29.85;52.10;100821.94;5032616;28;20463;-71
2021/06/19 08:31:44;;;;;;;5.00;4.23;;;;;;;29.90;52.70;100818.66;5032595;28;20833;-71
2021/06/19 08:34:10;;;;;;;4.53;4.13;;;;;;;29.94;52.83;100823.41;5032320;28;20446;-71
2021/06/19 08:36:38;;;;;;;4.30;3.70;;;;;;;30.02;52.92;100825.63;5032414;28;20447;-71
2021/06/19 08:39:05;;;;;;;3.40;3.10;;;;;;;30.04;53.68;100825.19;5032458;28;20574;-71
2021/06/19 08:41:32;;;;;;;4.90;4.23;;;;;;;30.17;50.00;100823.34;5035508;28;20447;-71
2021/06/19 08:44:00;;;;;;;5.33;3.97;;;;;;;30.24;51.46;100817.63;5036260;28;20541;-71
2021/06/19 08:46:26;;;;;;;6.67;4.90;;;;;;;30.25;52.00;100816.41;5036050;28;20443;-71
2021/06/19 08:48:56;;;;;;;3.57;3.27;;;;;;;30.40;48.83;100803.69;5035985;28;20470;-71
2021/06/19 08:51:24;;;;;;;4.60;4.07;;;;;;;30.63;48.79;100819.56;5035972;28;20479;-71
2021/06/19 08:53:50;;;;;;;8.13;4.27;;;;;;;30.81;47.36;100816.41;5036020;28;20439;-71
2021/06/19 08:56:18;;;;;;;4.17;3.77;;;;;;;30.98;46.15;100822.00;5035938;28;20442;-71
2021/06/19 08:58:45;;;;;;;4.37;3.50;;;;;;;31.04;45.04;100820.28;5035633;28;20470;-71
2021/06/19 09:01:12;;;;;;;4.27;3.87;;;;;;;31.18;46.26;100833.94;5036118;28;20443;-71
2021/06/19 09:03:39;;;;;;;5.10;3.80;;;;;;;31.27;45.64;100836.91;5042875;28;20447;-71
2021/06/19 09:06:26;;;;;;;4.53;3.70;;;;;;;31.29;44.75;100823.25;5035867;28;20569;-71
2021/06/19 09:09:06;;;;;;;4.30;3.83;;;;;;;31.38;45.48;100829.03;5035671;28;20505;-72
2021/06/19 09:11:34;;;;;;;5.13;4.00;;;;;;;31.49;44.58;100822.38;5029970;28;20473;-71
2021/06/19 09:14:02;;;;;;;3.73;3.43;;;;;;;31.54;45.10;100813.44;5015378;28;20450;-70
2021/06/19 09:16:28;;;;;;;5.27;3.73;;;;;;;31.61;44.57;100816.03;5015974;28;20448;-72
2021/06/19 09:18:55;;;;;;;3.50;3.20;;;;;;;31.73;44.29;100814.53;5015659;28;20467;-72
2021/06/19 09:21:29;;;;;;;3.67;3.37;;;;;;;31.74;44.35;100807.69;5015941;28;20462;-73
2021/06/19 09:23:56;;;;;;;3.53;3.23;;;;;;;31.82;45.34;100806.28;5015704;28;20427;-73
2021/06/19 09:26:25;;;;;;;4.70;3.40;;;;;;;31.88;43.40;100816.56;5015650;28;20443;-73
2021/06/19 09:29:04;;;;;;;2.97;2.77;;;;;;;32.08;43.87;100807.19;5015492;28;20475;-73
2021/06/19 09:31:33;;;;;;;3.60;3.30;;;;;;;32.14;42.17;100811.00;5015538;28;20468;-73
2021/06/19 09:34:04;;;;;;;3.73;3.20;;;;;;;32.26;43.06;100803.88;5015541;28;20454;-72
2021/06/19 09:36:54;;;;;;;3.73;3.43;;;;;;;32.41;42.15;100805.06;5015400;28;20444;-73
2021/06/19 09:39:23;;;;;;;3.83;3.27;;;;;;;32.58;41.91;100811.34;5010701;28;20479;-73
2021/06/19 09:41:52;;;;;;;4.03;3.63;;;;;;;32.61;40.62;100802.03;5015368;28;20436;-73
2021/06/19 09:44:33;;;;;;;3.37;3.07;;;;;;;32.68;41.22;100807.44;5015277;28;20444;-73
2021/06/19 09:47:00;;;;;;;4.20;3.80;;;;;;;32.79;41.64;100799.44;5015270;28;20532;-73
2021/06/19 09:49:32;;;;;;;3.73;3.33;;;;;;;32.87;42.69;100806.41;5015125;28;20901;-73
2021/06/19 09:52:00;;;;;;;3.10;2.77;;;;;;;32.96;42.02;100799.38;5014182;28;20478;-73
2021/06/19 09:54:27;;;;;;;2.67;2.47;;;;;;;33.06;39.21;100801.03;5015081;28;20449;-73
2021/06/19 09:56:55;;;;;;;2.60;2.40;;;;;;;33.25;37.72;100804.81;5015348;28;20451;-73
2021/06/19 09:59:27;;;;;;;2.50;2.30;;;;;;;33.44;38.46;100798.19;5014605;28;20483;-73
2021/06/19 10:01:54;;;;;;;2.53;2.27;;;;;;;33.52;37.73;100805.13;5015070;28;20514;-73
2021/06/19 10:04:22;;;;;;;3.70;2.90;;;;;;;33.51;38.66;100799.94;5014578;28;20448;-73
2021/06/19 10:06:49;;;;;;;3.40;2.37;;;;;;;33.65;34.65;100799.47;5014863;28;20436;-73
2021/06/19 10:09:17;;;;;;;4.07;2.77;;;;;;;33.56;34.00;100790.97;5014787;28;20464;-73
2021/06/19 10:11:45;;;;;;;3.20;2.90;;;;;;;33.62;34.72;100789.13;5014391;28;21038;-74
2021/06/19 10:14:17;;;;;;;3.00;2.70;;;;;;;33.77;35.50;100795.00;5014278;28;20440;-72
2021/06/19 10:16:44;;;;;;;3.10;2.80;;;;;;;33.88;38.09;100786.97;5014592;28;20467;-73
2021/06/19 10:19:12;;;;;;;2.97;2.67;;;;;;;33.90;39.13;100781.69;5014492;28;20475;-73
2021/06/19 10:21:38;;;;;;;2.93;2.70;;;;;;;33.97;36.54;100786.28;5014538;28;20447;-73
2021/06/19 10:24:07;;;;;;;3.07;2.77;;;;;;;33.94;37.78;100784.34;5014564;28;20448;-73
2021/06/19 10:26:37;;;;;;;2.60;2.40;;;;;;;34.02;36.43;100792.09;5014528;28;20491;-73
2021/06/19 10:29:06;;;;;;;2.27;2.07;;;;;;;34.02;35.17;100785.69;5014330;28;20491;-73
2021/06/19 10:31:39;;;;;;;4.00;2.37;;;;;;;34.11;35.13;100788.56;5014421;28;20573;-73
2021/06/19 10:34:22;;;;;;;2.33;2.20;;;;;;;34.22;34.89;100790.97;5014535;28;20428;-73
2021/06/19 10:36:49;;;;;;;2.80;2.37;;;;;;;34.36;35.63;100793.25;5014444;28;20428;-73
2021/06/19 10:39:32;;;;;;;4.67;2.60;;;;;;;34.45;36.94;100789.69;5014079;28;20479;-73
2021/06/19 10:42:00;;;;;;;2.70;2.50;;;;;;;34.48;34.16;100783.94;5014286;28;20464;-73
2021/06/19 10:44:48;;;;;;;1.90;1.80;;;;;;;34.59;33.04;100786.34;5014056;28;20444;-73
2021/06/19 10:47:15;;;;;;;2.33;2.10;;;;;;;34.74;34.21;100783.75;5014260;28;20428;-72
2021/06/19 10:49:43;;;;;;;2.20;2.00;;;;;;;34.96;33.32;100780.84;5013868;28;20467;-72
2021/06/19 10:52:24;;;;;;;2.37;2.17;;;;;;;35.15;32.34;100779.63;5014116;28;20487;-73
2021/06/19 10:55:20;;;;;;;3.40;2.67;;;;;;;35.23;32.26;100777.31;5013846;28;20532;-73
2021/06/19 10:57:49;;;;;;;2.03;1.93;;;;;;;35.28;32.31;100782.31;5013720;28;20444;-73
2021/06/19 11:00:28;;;;;;;2.93;2.60;;;;;;;35.26;33.04;100790.47;5013288;28;20828;-73
2021/06/19 11:02:57;;;;;;;2.70;2.20;;;;;;;35.33;31.89;100784.50;5013662;28;20451;-73
2021/06/19 11:06:09;;;;;;;2.40;2.20;;;;;;;35.46;32.41;100781.56;5013917;28;20444;-72
2021/06/19 11:09:00;;;;;;;2.93;1.87;;;;;;;35.65;32.92;100776.75;5019826;28;20475;-73
2021/06/19 11:11:52;;;;;;;2.73;2.23;;;;;;;35.87;33.41;100780.16;5013984;28;20472;-74
2021/06/19 11:14:55;;;;;;;2.23;2.03;;;;;;;36.30;33.84;100783.84;5013370;28;20925;-73
2021/06/19 11:17:45;;;;;;;3.63;2.37;;;;;;;36.87;31.85;100770.59;5013391;28;20837;-73
2021/06/19 11:20:31;;;;;;;2.20;2.00;;;;;;;37.28;31.37;100779.47;5021909;28;20479;-72
2021/06/19 11:23:02;;;;;;;2.40;2.20;;;;;;;37.46;30.36;100775.00;5033076;28;20811;-73
2021/06/19 11:25:41;;;;;;;3.10;2.57;;;;;;;37.50;31.11;100784.84;5033277;28;20489;-73
2021/06/19 11:28:10;;;;;;;3.30;2.70;;;;;;;37.51;31.49;100780.75;5033343;28;20423;-73
2021/06/19 11:30:50;;;;;;;3.10;2.80;;;;;;;37.19;31.31;100775.91;5033132;28;20467;-72